createdAt,value
2023-03-12T00:02:17.591Z,99806.63
2023-03-12T00:04:44.954Z,99815.81
2023-03-12T00:07:12.356Z,99804.63
2023-03-12T00:09:39.780Z,99817.53
2023-03-12T00:12:07.674Z,99820.56
2023-03-12T00:14:35.287Z,99824.78
2023-03-12T00:17:02.690Z,99816.09
2023-03-12T00:19:30.071Z,99815.47
2023-03-12T00:21:57.486Z,99830.19
2023-03-12T00:24:24.892Z,99821.34
2023-03-12T00:26:52.252Z,99839.50
2023-03-12T00:29:19.665Z,99833.50
2023-03-12T00:31:47.778Z,99841.75
2023-03-12T00:34:47.677Z,99843.66
2023-03-12T00:37:15.071Z,99849.44
2023-03-12T00:39:42.617Z,99853.34
2023-03-12T00:42:09.975Z,99856.16
2023-03-12T00:44:37.339Z,99849.31
2023-03-12T00:47:05.018Z,99857.00
2023-03-12T00:49:32.514Z,99863.88
2023-03-12T00:51:59.922Z,99864.75
2023-03-12T00:54:27.617Z,99867.13
2023-03-12T00:56:55.084Z,99862.16
2023-03-12T00:59:22.398Z,99872.81
2023-03-12T01:01:50.264Z,99864.75
2023-03-12T01:04:17.850Z,99872.00
2023-03-12T01:06:45.317Z,99878.16
2023-03-12T01:09:13.340Z,99872.81
2023-03-12T01:11:41.144Z,99872.97
2023-03-12T01:14:09.334Z,99887.25
2023-03-12T01:16:36.848Z,99881.91
2023-03-12T01:19:04.637Z,99863.81
2023-03-12T01:21:32.451Z,99882.16
2023-03-12T01:24:00.326Z,99875.50
2023-03-12T01:26:28.272Z,99896.91
2023-03-12T01:28:55.945Z,99893.78
2023-03-12T01:31:23.401Z,99911.06
2023-03-12T01:33:52.407Z,99916.25
2023-03-12T01:36:23.262Z,99912.72
2023-03-12T01:38:53.039Z,99918.69
2023-03-12T01:41:21.276Z,99916.31
2023-03-12T01:43:49.507Z,99920.09
2023-03-12T01:46:24.046Z,99915.84
2023-03-12T01:49:09.123Z,99926.50
2023-03-12T01:51:50.382Z,99932.88
2023-03-12T01:54:41.645Z,99943.69
2023-03-12T01:57:14.852Z,99944.69
2023-03-12T01:59:47.250Z,99941.47
2023-03-12T02:02:15.653Z,99937.00
2023-03-12T02:04:45.255Z,99941.53
2023-03-12T02:07:15.681Z,99950.50
2023-03-12T02:09:48.665Z,99942.63
2023-03-12T02:12:17.068Z,99943.72
2023-03-12T02:14:44.591Z,99958.94
2023-03-12T02:17:12.390Z,99951.69
2023-03-12T02:19:55.173Z,99971.94
2023-03-12T02:22:23.549Z,99978.44
2023-03-12T02:25:03.910Z,99967.78
2023-03-12T02:27:37.354Z,99982.13
2023-03-12T02:30:05.822Z,99998.91
2023-03-12T02:32:38.410Z,99994.56
2023-03-12T02:35:07.148Z,99997.47
2023-03-12T02:37:34.596Z,99989.78
2023-03-12T02:40:13.320Z,100004.72
2023-03-12T02:42:40.736Z,100002.06
2023-03-12T02:45:08.559Z,100000.03
2023-03-12T02:47:35.969Z,100011.69
2023-03-12T02:50:03.844Z,100004.59
2023-03-12T02:52:35.599Z,100018.47
2023-03-12T02:55:03.286Z,100017.50
2023-03-12T02:57:31.069Z,100024.38
2023-03-12T02:59:58.538Z,100015.66
2023-03-12T03:02:26.009Z,100023.66
2023-03-12T03:04:53.521Z,100032.38
2023-03-12T03:07:20.900Z,100031.00
2023-03-12T03:09:48.360Z,100031.19
2023-03-12T03:12:15.798Z,100047.34
2023-03-12T03:14:43.216Z,100046.34
2023-03-12T03:17:11.290Z,100043.59
2023-03-12T03:19:38.752Z,100062.16
2023-03-12T03:22:06.268Z,100065.69
2023-03-12T03:24:33.675Z,100068.53
2023-03-12T03:27:01.042Z,100080.63
2023-03-12T03:29:28.499Z,100084.13
2023-03-12T03:31:55.999Z,100071.69
2023-03-12T03:34:23.339Z,100068.06
2023-03-12T03:36:50.875Z,100082.34
2023-03-12T03:39:19.180Z,100085.72
2023-03-12T03:41:47.396Z,100085.38
2023-03-12T03:44:18.865Z,100088.94
2023-03-12T03:46:47.842Z,100095.53
2023-03-12T03:49:15.625Z,100104.25
2023-03-12T03:51:43.387Z,100102.81
2023-03-12T03:54:14.029Z,100100.84
2023-03-12T03:56:42.765Z,100132.13
2023-03-12T03:59:11.584Z,100119.06
2023-03-12T04:01:40.637Z,100134.75
2023-03-12T04:04:08.207Z,100125.06
2023-03-12T04:06:36.981Z,100143.03
2023-03-12T04:09:04.866Z,100134.78
2023-03-12T04:11:34.033Z,100135.03
2023-03-12T04:14:02.864Z,100152.03
2023-03-12T04:16:32.874Z,100154.19
2023-03-12T04:19:01.227Z,100146.72
2023-03-12T04:21:28.922Z,100159.97
2023-03-12T04:23:56.596Z,100154.63
2023-03-12T04:26:28.497Z,100159.09
2023-03-12T04:28:57.114Z,100156.75
2023-03-12T04:31:24.846Z,100167.81
2023-03-12T04:33:52.387Z,100170.00
2023-03-12T04:36:23.593Z,100176.22
2023-03-12T04:38:52.027Z,100184.25
2023-03-12T04:41:23.643Z,100182.22
2023-03-12T04:43:56.156Z,100186.16
2023-03-12T04:46:23.832Z,100192.41
2023-03-12T04:48:51.544Z,100196.97
2023-03-12T04:51:18.929Z,100197.97
2023-03-12T04:53:46.517Z,100200.63
2023-03-12T04:56:15.427Z,100206.75
2023-03-12T04:58:43.995Z,100208.81
2023-03-12T05:01:23.908Z,100211.00
2023-03-12T05:03:51.880Z,100219.63
2023-03-12T05:06:20.319Z,100231.25
2023-03-12T05:08:48.463Z,100231.69
2023-03-12T05:11:16.898Z,100234.28
2023-03-12T05:13:44.496Z,100247.53
2023-03-12T05:16:13.251Z,100254.72
2023-03-12T05:18:41.834Z,100252.06
2023-03-12T05:21:18.686Z,100262.53
2023-03-12T05:23:47.095Z,100251.81
2023-03-12T05:26:24.828Z,100262.59
2023-03-12T05:28:55.899Z,100264.34
2023-03-12T05:31:25.249Z,100267.28
2023-03-12T05:33:53.528Z,100276.13
2023-03-12T05:36:22.420Z,100269.34
2023-03-12T05:38:50.389Z,100275.47
2023-03-12T05:41:28.879Z,100289.53
2023-03-12T05:44:00.890Z,100268.59
2023-03-12T05:46:29.420Z,100288.97
2023-03-12T05:48:58.154Z,100281.97
2023-03-12T05:51:25.829Z,100287.69
2023-03-12T05:53:55.076Z,100288.56
2023-03-12T05:56:23.122Z,100293.97
2023-03-12T05:58:50.834Z,100294.81
2023-03-12T06:01:26.634Z,100299.31
2023-03-12T06:03:56.350Z,100293.97
2023-03-12T06:06:25.850Z,100325.53
2023-03-12T06:08:54.169Z,100310.47
2023-03-12T06:11:21.600Z,100314.88
2023-03-12T06:13:49.226Z,100327.16
2023-03-12T06:16:20.970Z,100327.44
2023-03-12T06:18:49.234Z,100313.38
2023-03-12T06:21:23.832Z,100327.41
2023-03-12T06:23:52.468Z,100332.88
2023-03-12T06:26:30.932Z,100326.44
2023-03-12T06:28:58.437Z,100351.00
2023-03-12T06:31:25.867Z,100352.72
2023-03-12T06:33:53.812Z,100354.53
2023-03-12T06:36:24.072Z,100342.91
2023-03-12T06:38:52.053Z,100335.97
2023-03-12T06:41:21.054Z,100357.88
2023-03-12T06:43:48.596Z,100367.16
2023-03-12T06:46:18.475Z,100361.53
2023-03-12T06:48:46.701Z,100359.81
2023-03-12T06:51:15.971Z,100362.41
2023-03-12T06:53:44.633Z,100363.59
2023-03-12T06:56:12.783Z,100376.91
2023-03-12T06:58:40.407Z,100369.03
2023-03-12T07:01:08.184Z,100380.75
2023-03-12T07:03:35.777Z,100381.13
2023-03-12T07:06:03.494Z,100386.28
2023-03-12T07:08:31.264Z,100381.38
2023-03-12T07:11:01.842Z,100395.38
2023-03-12T07:13:30.153Z,100384.69
2023-03-12T07:15:57.992Z,100378.03
2023-03-12T07:18:25.843Z,100372.00
2023-03-12T07:20:53.626Z,100381.38
2023-03-12T07:23:22.161Z,100387.69
2023-03-12T07:25:50.440Z,100399.69
2023-03-12T07:28:18.463Z,100397.97
2023-03-12T07:30:50.547Z,100404.34
2023-03-12T07:33:19.996Z,100419.31
2023-03-12T07:35:51.425Z,100414.25
2023-03-12T07:38:19.311Z,100425.59
2023-03-12T07:40:54.915Z,100421.94
2023-03-12T07:43:23.295Z,100420.72
2023-03-12T07:45:53.732Z,100433.09
2023-03-12T07:48:21.178Z,100444.72
2023-03-12T07:50:49.086Z,100458.38
2023-03-12T07:53:17.051Z,100448.69
2023-03-12T07:56:06.542Z,100449.38
2023-03-12T07:58:36.623Z,100459.38
2023-03-12T08:01:04.985Z,100461.66
2023-03-12T08:03:33.359Z,100437.97
2023-03-12T08:06:03.193Z,100453.13
2023-03-12T08:08:31.717Z,100444.66
2023-03-12T08:11:00.417Z,100447.44
2023-03-12T08:13:31.855Z,100455.25
2023-03-12T08:15:59.343Z,100455.75
2023-03-12T08:18:27.510Z,100449.31
2023-03-12T08:20:54.941Z,100456.69
2023-03-12T08:23:24.531Z,100464.00
2023-03-12T08:25:52.870Z,100469.41
2023-03-12T08:28:22.931Z,100461.00
2023-03-12T08:30:54.689Z,100476.97
2023-03-12T08:33:22.616Z,100474.41
2023-03-12T08:35:50.889Z,100467.94
2023-03-12T08:38:18.697Z,100472.56
2023-03-12T08:40:46.246Z,100485.63
2023-03-12T08:43:13.647Z,100488.72
2023-03-12T08:45:41.209Z,100489.03
2023-03-12T08:48:08.653Z,100502.28
2023-03-12T08:50:36.213Z,100488.47
2023-03-12T08:53:03.540Z,100494.63
2023-03-12T08:55:30.891Z,100493.59
2023-03-12T08:57:58.320Z,100510.06
2023-03-12T09:00:25.696Z,100503.50
2023-03-12T09:02:54.281Z,100499.22
2023-03-12T09:05:21.799Z,100514.13
2023-03-12T09:07:50.116Z,100506.91
2023-03-12T09:10:21.101Z,100510.47
2023-03-12T09:12:48.568Z,100514.47
2023-03-12T09:15:16.120Z,100502.91
2023-03-12T09:17:43.630Z,100491.63
2023-03-12T09:20:14.597Z,100506.63
2023-03-12T09:22:42.964Z,100496.16
2023-03-12T09:25:11.592Z,100502.91
2023-03-12T09:27:39.807Z,100518.56
2023-03-12T09:30:12.685Z,100513.22
2023-03-12T09:32:40.209Z,100531.84
2023-03-12T09:35:09.476Z,100535.47
2023-03-12T09:37:36.892Z,100535.84
2023-03-12T09:40:07.835Z,100537.66
2023-03-12T09:42:47.708Z,100549.50
2023-03-12T09:45:27.615Z,100549.56
2023-03-12T09:48:01.917Z,100551.09
2023-03-12T09:50:33.590Z,100557.31
2023-03-12T09:53:06.636Z,100550.97
2023-03-12T09:55:43.666Z,100553.56
2023-03-12T09:58:19.464Z,100542.53
2023-03-12T10:00:47.680Z,100555.13
2023-03-12T10:03:22.916Z,100561.00
2023-03-12T10:05:53.322Z,100560.22
2023-03-12T10:08:54.256Z,100552.34
2023-03-12T10:11:57.061Z,100552.81
2023-03-12T10:14:33.506Z,100560.84
2023-03-12T10:17:32.912Z,100546.59
2023-03-12T10:20:21.636Z,100558.69
2023-03-12T10:23:13.202Z,100553.69
2023-03-12T10:26:09.017Z,100551.78
2023-03-12T10:28:42.829Z,100555.72
2023-03-12T10:31:21.226Z,100554.25
2023-03-12T10:33:54.346Z,100566.75
2023-03-12T10:36:46.661Z,100559.78
2023-03-12T10:39:17.104Z,100551.63
2023-03-12T10:41:46.982Z,100563.09
2023-03-12T10:44:22.250Z,100544.91
2023-03-12T10:47:12.554Z,100554.00
2023-03-12T10:49:40.028Z,100551.25
2023-03-12T10:52:22.266Z,100567.03
2023-03-12T10:54:52.368Z,100558.25
2023-03-12T10:57:21.367Z,100551.19
2023-03-12T10:59:51.093Z,100568.56
2023-03-12T11:02:32.624Z,100552.34
2023-03-12T11:05:02.668Z,100560.59
2023-03-12T11:07:35.490Z,100551.09
2023-03-12T11:10:14.168Z,100570.16
2023-03-12T11:12:58.769Z,100561.09
2023-03-12T11:15:38.113Z,100572.63
2023-03-12T11:18:20.780Z,100558.59
2023-03-12T11:20:52.507Z,100560.94
2023-03-12T11:23:26.738Z,100574.88
2023-03-12T11:25:58.894Z,100561.53
2023-03-12T11:28:38.329Z,100563.06
2023-03-12T11:31:11.221Z,100565.09
2023-03-12T11:33:38.778Z,100575.28
2023-03-12T11:36:07.092Z,100567.16
2023-03-12T11:38:49.139Z,100564.97
2023-03-12T11:41:25.048Z,100567.75
2023-03-12T11:44:30.398Z,100558.94
2023-03-12T11:47:07.220Z,100558.78
2023-03-12T11:49:40.694Z,100559.06
2023-03-12T11:52:35.400Z,100574.00
2023-03-12T11:55:38.130Z,100569.00
2023-03-12T11:58:33.369Z,100572.91
2023-03-12T12:01:37.150Z,100584.28
2023-03-12T12:04:10.627Z,100575.59
2023-03-12T12:06:55.605Z,100575.59
2023-03-12T12:09:51.714Z,100571.91
2023-03-12T12:12:51.421Z,100567.53
2023-03-12T12:15:24.814Z,100565.16
2023-03-12T12:18:14.091Z,100561.00
2023-03-12T12:21:17.829Z,100560.94
2023-03-12T12:23:45.427Z,100554.94
2023-03-12T12:26:15.750Z,100542.16
2023-03-12T12:29:21.705Z,100553.34
2023-03-12T12:32:01.284Z,100561.25
2023-03-12T12:34:44.047Z,100554.56
2023-03-12T12:37:40.378Z,100558.56
2023-03-12T12:40:20.340Z,100541.66
2023-03-12T12:43:06.661Z,100549.78
2023-03-12T12:45:39.411Z,100540.19
2023-03-12T12:48:16.829Z,100531.31
2023-03-12T12:50:47.285Z,100536.19
2023-03-12T12:53:41.013Z,100535.00
2023-03-12T12:56:17.477Z,100528.69
2023-03-12T12:59:25.113Z,100539.81
2023-03-12T13:01:56.106Z,100537.31
2023-03-12T13:04:39.100Z,100536.00
2023-03-12T13:07:12.211Z,100540.13
2023-03-12T13:09:41.228Z,100538.31
2023-03-12T13:12:30.685Z,100540.53
2023-03-12T13:14:59.836Z,100528.56
2023-03-12T13:17:35.805Z,100518.94
2023-03-12T13:20:16.306Z,100522.00
2023-03-12T13:23:11.078Z,100533.81
2023-03-12T13:25:56.694Z,100537.56
2023-03-12T13:28:30.220Z,100542.56
2023-03-12T13:31:01.017Z,100547.22
2023-03-12T13:33:51.573Z,100542.59
2023-03-12T13:36:23.811Z,100548.53
2023-03-12T13:38:58.944Z,100543.53
2023-03-12T13:41:38.521Z,100547.41
2023-03-12T13:44:24.054Z,100541.91
2023-03-12T13:47:26.484Z,100554.50
2023-03-12T13:50:13.589Z,100562.00
2023-03-12T13:52:51.647Z,100566.91
2023-03-12T13:55:31.873Z,100568.81
2023-03-12T13:58:16.978Z,100549.56
2023-03-12T14:00:56.939Z,100549.75
2023-03-12T14:03:30.149Z,100544.16
2023-03-12T14:06:05.633Z,100556.78
2023-03-12T14:09:10.010Z,100561.50
2023-03-12T14:11:59.160Z,100556.78
2023-03-12T14:14:41.247Z,100553.56
2023-03-12T14:17:17.180Z,100549.13
2023-03-12T14:19:52.703Z,100571.78
2023-03-12T14:22:22.938Z,100549.13
2023-03-12T14:24:56.915Z,100550.25
2023-03-12T14:27:29.185Z,100534.13
2023-03-12T14:30:12.052Z,100548.75
2023-03-12T14:32:40.825Z,100559.94
2023-03-12T14:35:31.027Z,100532.06
2023-03-12T14:38:07.279Z,100554.81
2023-03-12T14:41:00.533Z,100551.16
2023-03-12T14:43:30.684Z,100542.66
2023-03-12T14:46:01.718Z,100532.53
2023-03-12T14:48:34.410Z,100547.31
2023-03-12T14:51:04.900Z,100552.97
2023-03-12T14:53:38.690Z,100549.13
2023-03-12T14:56:13.730Z,100561.44
2023-03-12T14:58:45.261Z,100564.78
2023-03-12T15:01:17.227Z,100559.41
2023-03-12T15:03:48.265Z,100567.31
2023-03-12T15:06:43.013Z,100560.84
2023-03-12T15:09:19.721Z,100558.59
2023-03-12T15:12:02.233Z,100556.94
2023-03-12T15:14:33.989Z,100559.19
2023-03-12T15:17:05.271Z,100535.91
2023-03-12T15:19:37.242Z,100560.47
2023-03-12T15:22:05.502Z,100553.09
2023-03-12T15:24:38.845Z,100555.97
2023-03-12T15:27:30.535Z,100555.91
2023-03-12T15:29:59.720Z,100562.97
2023-03-12T15:32:29.840Z,100556.31
2023-03-12T15:34:59.815Z,100563.81
2023-03-12T15:37:41.266Z,100572.91
2023-03-12T15:40:24.181Z,100567.38
2023-03-12T15:42:57.485Z,100569.72
2023-03-12T15:45:31.390Z,100557.50
2023-03-12T15:47:58.942Z,100560.31
2023-03-12T15:50:40.642Z,100554.47
2023-03-12T15:53:14.103Z,100565.19
2023-03-12T15:55:42.718Z,100580.88
2023-03-12T15:58:32.785Z,100568.03
2023-03-12T16:01:24.077Z,100577.72
2023-03-12T16:03:51.641Z,100565.09
2023-03-12T16:06:23.335Z,100572.34
2023-03-12T16:08:52.955Z,100572.31
2023-03-12T16:11:29.061Z,100570.78
2023-03-12T16:14:04.681Z,100572.53
2023-03-12T16:16:32.720Z,100571.06
2023-03-12T16:19:00.456Z,100591.84
2023-03-12T16:21:27.891Z,100583.06
2023-03-12T16:23:55.268Z,100597.03
2023-03-12T16:26:22.740Z,100603.59
2023-03-12T16:28:50.363Z,100616.41
2023-03-12T16:31:17.899Z,100612.00
2023-03-12T16:33:45.449Z,100619.44
2023-03-12T16:36:15.874Z,100607.28
2023-03-12T16:38:44.575Z,100616.47
2023-03-12T16:41:14.569Z,100617.25
2023-03-12T16:43:46.086Z,100621.56
2023-03-12T16:46:19.645Z,100617.50
2023-03-12T16:48:52.178Z,100634.88
2023-03-12T16:51:20.370Z,100635.75
2023-03-12T16:53:58.449Z,100625.19
2023-03-12T16:56:29.473Z,100620.78
2023-03-12T16:59:07.233Z,100636.28
2023-03-12T17:01:36.043Z,100623.09
2023-03-12T17:04:04.952Z,100641.59
2023-03-12T17:06:32.892Z,100637.47
2023-03-12T17:09:00.348Z,100642.97
2023-03-12T17:11:30.472Z,100638.03
2023-03-12T17:14:01.219Z,100658.78
2023-03-12T17:16:28.848Z,100673.19
2023-03-12T17:18:56.916Z,100663.53
2023-03-12T17:21:24.803Z,100671.97
2023-03-12T17:23:52.228Z,100676.72
2023-03-12T17:26:19.850Z,100677.03
2023-03-12T17:28:47.300Z,100671.25
2023-03-12T17:31:14.838Z,100670.78
2023-03-12T17:33:43.339Z,100679.84
2023-03-12T17:36:10.985Z,100686.03
2023-03-12T17:38:38.473Z,100697.47
2023-03-12T17:41:16.539Z,100699.03
2023-03-12T17:43:51.071Z,100717.53
2023-03-12T17:46:18.726Z,100738.88
2023-03-12T17:48:46.168Z,100743.50
2023-03-12T17:51:13.623Z,100747.91
2023-03-12T17:53:42.046Z,100749.72
2023-03-12T17:56:12.530Z,100757.19
2023-03-12T17:58:40.183Z,100773.00
2023-03-12T18:01:08.293Z,100758.56
2023-03-12T18:03:35.983Z,100765.13
2023-03-12T18:06:04.020Z,100756.00
2023-03-12T18:08:31.510Z,100766.13
2023-03-12T18:10:59.043Z,100773.47
2023-03-12T18:13:26.476Z,100769.03
2023-03-12T18:15:56.081Z,100755.44
2023-03-12T18:18:25.386Z,100760.31
2023-03-12T18:20:53.126Z,100774.84
2023-03-12T18:23:20.804Z,100777.59
2023-03-12T18:25:48.280Z,100772.94
2023-03-12T18:28:16.657Z,100784.69
2023-03-12T18:30:47.688Z,100795.19
2023-03-12T18:33:15.085Z,100789.28
2023-03-12T18:35:46.163Z,100791.84
2023-03-12T18:38:13.871Z,100795.91
2023-03-12T18:40:41.338Z,100805.66
2023-03-12T18:43:08.780Z,100811.25
2023-03-12T18:45:41.717Z,100818.69
2023-03-12T18:48:09.181Z,100817.97
2023-03-12T18:50:37.525Z,100807.53
2023-03-12T18:53:04.980Z,100805.97
2023-03-12T18:55:32.458Z,100810.13
2023-03-12T18:57:59.945Z,100826.16
2023-03-12T19:00:27.410Z,100832.09
2023-03-12T19:02:54.909Z,100822.22
2023-03-12T19:05:22.495Z,100838.28
2023-03-12T19:07:49.938Z,100839.84
2023-03-12T19:10:17.527Z,100842.50
2023-03-12T19:12:52.683Z,100830.00
2023-03-12T19:15:22.249Z,100833.75
2023-03-12T19:17:50.561Z,100848.44
2023-03-12T19:20:18.393Z,100854.72
2023-03-12T19:22:45.814Z,100841.63
2023-03-12T19:25:13.536Z,100841.97
2023-03-12T19:27:41.118Z,100853.59
2023-03-12T19:30:09.210Z,100840.66
2023-03-12T19:32:43.809Z,100856.25
2023-03-12T19:35:13.832Z,100844.25
2023-03-12T19:37:42.309Z,100860.38
2023-03-12T19:40:10.954Z,100857.13
2023-03-12T19:42:38.619Z,100874.81
2023-03-12T19:45:06.617Z,100881.00
2023-03-12T19:47:34.139Z,100888.78
2023-03-12T19:50:01.877Z,100912.06
2023-03-12T19:52:36.044Z,100920.97
2023-03-12T19:55:05.628Z,100916.63
2023-03-12T19:57:34.295Z,100920.28
2023-03-12T20:00:02.131Z,100912.44
2023-03-12T20:02:31.799Z,100923.06
2023-03-12T20:04:59.360Z,100927.59
2023-03-12T20:07:26.992Z,100941.00
2023-03-12T20:09:54.737Z,100935.59
2023-03-12T20:12:22.170Z,100943.56
2023-03-12T20:14:49.729Z,100939.59
2023-03-12T20:17:17.456Z,100931.78
2023-03-12T20:19:45.505Z,100939.63
2023-03-12T20:22:13.281Z,100945.03
2023-03-12T20:24:41.536Z,100937.63
2023-03-12T20:27:09.160Z,100921.38
2023-03-12T20:29:36.663Z,100935.66
2023-03-12T20:32:04.945Z,100939.81
2023-03-12T20:34:32.576Z,100935.44
2023-03-12T20:36:59.963Z,100922.91
2023-03-12T20:39:33.817Z,100935.22
2023-03-12T20:42:01.661Z,100909.78
2023-03-12T20:44:29.115Z,100929.88
2023-03-12T20:46:57.717Z,100927.28
2023-03-12T20:49:25.246Z,100923.09
2023-03-12T20:51:52.596Z,100917.06
2023-03-12T20:54:20.047Z,100927.81
2023-03-12T20:56:47.619Z,100934.47
2023-03-12T20:59:27.720Z,100927.66
2023-03-12T21:01:56.073Z,100917.91
2023-03-12T21:04:23.600Z,100920.78
2023-03-12T21:06:52.426Z,100938.47
2023-03-12T21:09:24.521Z,100947.59
2023-03-12T21:11:52.015Z,100943.69
2023-03-12T21:14:19.477Z,100947.34
2023-03-12T21:16:47.332Z,100963.09
2023-03-12T21:19:14.960Z,100979.16
2023-03-12T21:21:42.441Z,100969.28
2023-03-12T21:24:10.279Z,100977.22
2023-03-12T21:26:37.693Z,100978.34
2023-03-12T21:29:05.239Z,100968.63
2023-03-12T21:31:32.705Z,100974.03
2023-03-12T21:34:00.119Z,100972.28
2023-03-12T21:36:27.681Z,100976.03
2023-03-12T21:38:55.141Z,100982.13
2023-03-12T21:41:22.632Z,100969.00
2023-03-12T21:43:50.082Z,100994.06
2023-03-12T21:46:20.586Z,100995.56
2023-03-12T21:48:48.313Z,100995.53
2023-03-12T21:51:17.313Z,100993.69
2023-03-12T21:53:44.913Z,100995.00
2023-03-12T21:56:12.338Z,100975.69
2023-03-12T21:58:40.051Z,100974.78
2023-03-12T22:01:16.148Z,100964.84
2023-03-12T22:03:45.919Z,100969.91
2023-03-12T22:06:15.129Z,100984.94
2023-03-12T22:08:48.078Z,100978.50
2023-03-12T22:11:15.983Z,100984.97
2023-03-12T22:13:43.779Z,100970.88
2023-03-12T22:16:12.998Z,100970.19
2023-03-12T22:18:45.054Z,100969.59
2023-03-12T22:21:18.385Z,100991.47
2023-03-12T22:23:50.969Z,100980.41
2023-03-12T22:26:20.720Z,100980.72
2023-03-12T22:28:53.273Z,100988.22
2023-03-12T22:31:22.869Z,100991.59
2023-03-12T22:33:50.726Z,100986.72
2023-03-12T22:36:19.590Z,100995.88
2023-03-12T22:38:50.415Z,101002.06
2023-03-12T22:41:19.496Z,100971.00
2023-03-12T22:43:48.394Z,100986.66
2023-03-12T22:46:17.658Z,100993.72
2023-03-12T22:48:46.522Z,100983.47
2023-03-12T22:51:14.252Z,100999.28
2023-03-12T22:53:41.697Z,101004.72
2023-03-12T22:56:11.434Z,101003.22
2023-03-12T22:58:39.277Z,101000.78
2023-03-12T23:01:09.797Z,101000.97
2023-03-12T23:03:38.678Z,101009.84
2023-03-12T23:06:32.824Z,100996.34
2023-03-12T23:09:00.945Z,100992.31
2023-03-12T23:11:29.708Z,100987.31
2023-03-12T23:13:57.328Z,100990.06
2023-03-12T23:16:26.063Z,100990.72
2023-03-12T23:18:53.954Z,100988.03
2023-03-12T23:21:23.738Z,100988.91
2023-03-12T23:23:51.628Z,100985.59
2023-03-12T23:26:26.507Z,100969.25
2023-03-12T23:28:55.962Z,100992.44
2023-03-12T23:31:24.716Z,101000.47
2023-03-12T23:33:52.162Z,101001.22
2023-03-12T23:36:21.918Z,100989.63
2023-03-12T23:38:50.265Z,100998.31
2023-03-12T23:41:20.666Z,101002.28
2023-03-12T23:43:48.950Z,100996.94
2023-03-12T23:46:17.132Z,100996.88
2023-03-12T23:48:45.810Z,100994.81
2023-03-12T23:51:14.616Z,100988.59
2023-03-12T23:53:45.476Z,100987.78
2023-03-12T23:56:15.570Z,100996.03
2023-03-12T23:58:44.427Z,100992.56
